createdAt,value
2022-11-29T00:01:35.458Z,80.54
2022-11-29T00:04:03.458Z,80.67
2022-11-29T00:06:33.590Z,80.69
2022-11-29T00:09:06.451Z,80.68
2022-11-29T00:11:56.063Z,80.64
2022-11-29T00:14:24.511Z,80.73
2022-11-29T00:16:57.222Z,80.70
2022-11-29T00:19:23.865Z,80.71
2022-11-29T00:21:50.876Z,80.78
2022-11-29T00:24:17.886Z,80.80
2022-11-29T00:26:44.666Z,80.77
2022-11-29T00:29:12.954Z,80.87
2022-11-29T00:31:40.546Z,80.96
2022-11-29T00:34:08.052Z,81.08
2022-11-29T00:36:35.721Z,81.02
2022-11-29T00:39:05.047Z,81.00
2022-11-29T00:41:32.647Z,81.07
2022-11-29T00:43:59.383Z,81.12
2022-11-29T00:46:26.093Z,81.10
2022-11-29T00:48:52.719Z,81.17
2022-11-29T00:51:19.381Z,81.13
2022-11-29T00:53:45.998Z,81.20
2022-11-29T00:56:12.837Z,81.20
2022-11-29T00:58:39.587Z,81.15
2022-11-29T01:01:06.368Z,81.10
2022-11-29T01:03:33.110Z,81.19
2022-11-29T01:06:06.951Z,81.20
2022-11-29T01:08:34.003Z,81.20
2022-11-29T01:11:35.683Z,81.20
2022-11-29T01:14:04.051Z,81.19
2022-11-29T01:16:31.642Z,81.30
2022-11-29T01:18:58.438Z,81.25
2022-11-29T01:21:25.131Z,81.27
2022-11-29T01:23:53.709Z,81.30
2022-11-29T01:26:28.729Z,81.30
2022-11-29T01:28:57.370Z,81.29
2022-11-29T01:31:32.968Z,81.38
2022-11-29T01:34:02.638Z,81.49
2022-11-29T01:36:30.542Z,81.43
2022-11-29T01:39:00.634Z,81.45
2022-11-29T01:41:31.130Z,81.56
2022-11-29T01:44:20.732Z,81.59
2022-11-29T01:46:48.306Z,81.71
2022-11-29T01:49:27.341Z,81.65
2022-11-29T01:52:21.568Z,81.63
2022-11-29T01:54:54.335Z,81.65
2022-11-29T01:57:22.023Z,81.67
2022-11-29T01:59:55.044Z,81.71
2022-11-29T02:02:37.174Z,81.79
2022-11-29T02:05:05.360Z,81.80
2022-11-29T02:07:32.178Z,81.78
2022-11-29T02:09:58.987Z,81.80
2022-11-29T02:12:53.405Z,81.71
2022-11-29T02:15:46.773Z,81.63
2022-11-29T02:19:12.350Z,81.58
2022-11-29T02:22:13.636Z,81.45
2022-11-29T02:25:24.547Z,81.46
2022-11-29T02:28:26.096Z,81.55
2022-11-29T02:31:30.030Z,81.63
2022-11-29T02:34:16.585Z,81.78
2022-11-29T02:37:28.517Z,81.71
2022-11-29T02:40:23.002Z,81.64
2022-11-29T02:43:22.675Z,81.62
2022-11-29T02:46:13.808Z,81.62
2022-11-29T02:48:58.274Z,81.77
2022-11-29T02:52:10.464Z,81.88
2022-11-29T02:54:55.441Z,81.81
2022-11-29T02:57:30.682Z,81.87
2022-11-29T03:00:34.891Z,81.90
2022-11-29T03:03:21.780Z,81.90
2022-11-29T03:06:09.002Z,81.89
2022-11-29T03:08:49.921Z,81.86
2022-11-29T03:11:19.852Z,81.90
2022-11-29T03:14:17.258Z,81.92
2022-11-29T03:17:03.153Z,81.85
2022-11-29T03:20:07.392Z,81.93
2022-11-29T03:23:26.164Z,82.00
2022-11-29T03:26:05.341Z,81.91
2022-11-29T03:28:55.386Z,82.03
2022-11-29T03:31:37.817Z,81.93
2022-11-29T03:34:47.721Z,82.00
2022-11-29T03:37:26.177Z,82.07
2022-11-29T03:40:13.644Z,82.12
2022-11-29T03:43:04.445Z,82.28
2022-11-29T03:45:39.101Z,82.20
2022-11-29T03:48:21.129Z,82.18
2022-11-29T03:50:57.118Z,82.13
2022-11-29T03:53:48.413Z,82.10
2022-11-29T03:56:38.097Z,82.12
2022-11-29T03:59:25.612Z,82.10
2022-11-29T04:02:09.933Z,82.10
2022-11-29T04:05:12.929Z,82.09
2022-11-29T04:07:54.703Z,82.12
2022-11-29T04:11:04.710Z,82.19
2022-11-29T04:13:47.072Z,82.28
2022-11-29T04:16:41.934Z,82.38
2022-11-29T04:20:01.076Z,82.30
2022-11-29T04:22:39.803Z,82.22
2022-11-29T04:25:46.882Z,82.21
2022-11-29T04:28:54.664Z,82.20
2022-11-29T04:31:41.093Z,82.26
2022-11-29T04:34:36.021Z,82.26
2022-11-29T04:37:40.258Z,82.25
2022-11-29T04:40:57.073Z,82.15
2022-11-29T04:44:36.761Z,82.28
2022-11-29T04:47:29.804Z,82.28
2022-11-29T04:50:30.433Z,82.35
2022-11-29T04:53:21.356Z,82.40
2022-11-29T04:56:18.670Z,82.47
2022-11-29T04:59:12.895Z,82.50
2022-11-29T05:02:17.660Z,82.60
2022-11-29T05:05:24.793Z,82.63
2022-11-29T05:08:19.707Z,82.70
2022-11-29T05:10:56.319Z,82.71
2022-11-29T05:13:59.122Z,82.73
2022-11-29T05:16:49.240Z,82.72
2022-11-29T05:19:53.700Z,82.75
2022-11-29T05:22:31.225Z,82.78
2022-11-29T05:25:31.560Z,82.68
2022-11-29T05:28:37.888Z,82.61
2022-11-29T05:31:50.282Z,82.69
2022-11-29T05:34:44.833Z,82.67
2022-11-29T05:37:32.807Z,82.69
2022-11-29T05:41:04.010Z,82.63
2022-11-29T05:44:09.382Z,82.75
2022-11-29T05:47:10.267Z,82.81
2022-11-29T05:50:24.947Z,82.77
2022-11-29T05:53:12.005Z,82.80
2022-11-29T05:56:01.826Z,82.84
2022-11-29T05:58:41.103Z,82.92
2022-11-29T06:01:22.081Z,82.88
2022-11-29T06:04:19.326Z,82.90
2022-11-29T06:07:05.796Z,82.79
2022-11-29T06:09:40.909Z,82.71
2022-11-29T06:12:20.986Z,82.61
2022-11-29T06:15:17.261Z,82.56
2022-11-29T06:18:03.194Z,82.60
2022-11-29T06:20:43.012Z,82.61
2022-11-29T06:23:23.255Z,82.69
2022-11-29T06:26:44.999Z,82.79
2022-11-29T06:29:33.432Z,82.81
2022-11-29T06:32:19.466Z,82.81
2022-11-29T06:35:01.325Z,82.81
2022-11-29T06:37:38.726Z,82.82
2022-11-29T06:40:10.559Z,82.90
2022-11-29T06:42:37.193Z,82.97
2022-11-29T06:45:05.039Z,82.94
2022-11-29T06:47:53.163Z,82.82
2022-11-29T06:51:03.949Z,82.76
2022-11-29T06:53:57.977Z,82.77
2022-11-29T06:56:56.042Z,82.80
2022-11-29T06:59:37.898Z,82.80
2022-11-29T07:02:38.962Z,82.73
2022-11-29T07:05:30.310Z,82.70
2022-11-29T07:08:03.762Z,82.75
2022-11-29T07:10:34.143Z,82.70
2022-11-29T07:13:01.237Z,82.65
2022-11-29T07:15:28.681Z,82.52
2022-11-29T07:18:01.361Z,82.37
2022-11-29T07:20:39.741Z,82.40
2022-11-29T07:23:12.461Z,82.39
2022-11-29T07:26:17.307Z,82.21
2022-11-29T07:29:08.754Z,82.25
2022-11-29T07:32:26.366Z,82.16
2022-11-29T07:35:25.119Z,82.20
2022-11-29T07:38:06.999Z,82.04
2022-11-29T07:40:39.558Z,81.88
2022-11-29T07:43:27.584Z,81.81
2022-11-29T07:45:56.306Z,81.80
2022-11-29T07:48:23.205Z,81.58
2022-11-29T07:50:49.905Z,81.48
2022-11-29T07:53:20.140Z,81.50
2022-11-29T07:55:48.438Z,81.44
2022-11-29T07:58:17.654Z,81.36
2022-11-29T08:00:45.279Z,81.19
2022-11-29T08:03:12.825Z,81.16
2022-11-29T08:05:40.811Z,81.13
2022-11-29T08:08:07.876Z,81.10
2022-11-29T08:10:35.490Z,81.12
2022-11-29T08:13:02.258Z,81.23
2022-11-29T08:15:29.073Z,81.03
2022-11-29T08:17:56.113Z,80.98
2022-11-29T08:20:23.104Z,80.99
2022-11-29T08:23:00.320Z,81.14
2022-11-29T08:25:28.255Z,81.01
2022-11-29T08:27:56.338Z,81.03
2022-11-29T08:30:23.427Z,81.03
2022-11-29T08:32:51.987Z,81.02
2022-11-29T08:35:21.820Z,81.09
2022-11-29T08:37:48.605Z,81.08
2022-11-29T08:40:16.445Z,81.04
2022-11-29T08:42:43.305Z,80.95
2022-11-29T08:45:12.051Z,80.84
2022-11-29T08:47:41.039Z,80.67
2022-11-29T08:50:15.542Z,80.64
2022-11-29T08:53:05.445Z,80.51
2022-11-29T08:55:43.049Z,80.37
2022-11-29T08:58:13.808Z,80.30
2022-11-29T09:00:43.846Z,80.35
2022-11-29T09:03:29.217Z,80.17
2022-11-29T09:05:57.638Z,80.18
2022-11-29T09:08:24.313Z,80.10
2022-11-29T09:10:50.963Z,80.05
2022-11-29T09:13:18.222Z,79.92
2022-11-29T09:15:45.114Z,79.72
2022-11-29T09:18:11.801Z,79.50
2022-11-29T09:20:38.504Z,79.33
2022-11-29T09:23:05.160Z,79.22
2022-11-29T09:25:31.950Z,79.27
2022-11-29T09:28:01.854Z,79.38
2022-11-29T09:30:31.494Z,79.45
2022-11-29T09:33:05.065Z,79.37
2022-11-29T09:35:33.533Z,79.48
2022-11-29T09:38:00.256Z,79.48
2022-11-29T09:40:37.753Z,79.23
2022-11-29T09:43:41.020Z,79.03
2022-11-29T09:46:58.998Z,79.02
2022-11-29T09:49:43.765Z,79.13
2022-11-29T09:52:33.588Z,79.32
2022-11-29T09:55:25.144Z,79.19
2022-11-29T09:57:54.997Z,79.41
2022-11-29T10:00:21.602Z,79.68
2022-11-29T10:02:56.926Z,79.73
2022-11-29T10:05:44.193Z,79.39
2022-11-29T10:08:23.319Z,79.49
2022-11-29T10:10:55.732Z,79.55
2022-11-29T10:13:34.368Z,79.51
2022-11-29T10:16:23.072Z,79.81
2022-11-29T10:19:24.575Z,79.47
2022-11-29T10:22:02.919Z,79.68
2022-11-29T10:24:32.039Z,79.45
2022-11-29T10:26:58.743Z,79.04
2022-11-29T10:29:25.901Z,79.05
2022-11-29T10:31:56.816Z,78.93
2022-11-29T10:34:26.779Z,78.89
2022-11-29T10:36:59.824Z,78.80
2022-11-29T10:39:57.479Z,78.55
2022-11-29T10:42:47.050Z,78.34
2022-11-29T10:45:30.849Z,78.36
2022-11-29T10:48:16.970Z,78.36
2022-11-29T10:50:48.714Z,78.47
2022-11-29T10:53:25.382Z,78.68
2022-11-29T10:56:06.506Z,78.76
2022-11-29T10:58:33.172Z,78.48
2022-11-29T11:01:07.179Z,78.41
2022-11-29T11:03:35.651Z,78.06
2022-11-29T11:06:18.702Z,77.90
2022-11-29T11:08:54.028Z,78.24
2022-11-29T11:11:31.741Z,78.22
2022-11-29T11:14:03.426Z,78.22
2022-11-29T11:16:34.295Z,77.72
2022-11-29T11:19:31.369Z,77.73
2022-11-29T11:22:01.395Z,77.67
2022-11-29T11:24:36.233Z,77.72
2022-11-29T11:27:03.644Z,77.73
2022-11-29T11:29:41.618Z,77.54
2022-11-29T11:32:19.557Z,77.80
2022-11-29T11:34:57.212Z,77.74
2022-11-29T11:37:29.276Z,77.37
2022-11-29T11:40:20.573Z,76.89
2022-11-29T11:42:47.252Z,77.35
2022-11-29T11:45:13.841Z,77.67
2022-11-29T11:47:46.709Z,77.69
2022-11-29T11:50:34.334Z,77.65
2022-11-29T11:53:06.692Z,77.60
2022-11-29T11:55:35.000Z,77.46
2022-11-29T11:58:13.469Z,77.36
2022-11-29T12:01:05.845Z,77.54
2022-11-29T12:03:53.046Z,77.75
2022-11-29T12:06:41.595Z,77.42
2022-11-29T12:09:08.464Z,77.03
2022-11-29T12:12:03.864Z,76.99
2022-11-29T12:14:45.593Z,76.72
2022-11-29T12:17:38.662Z,76.85
2022-11-29T12:20:31.156Z,76.68
2022-11-29T12:23:13.155Z,76.48
2022-11-29T12:25:53.830Z,76.45
2022-11-29T12:28:22.714Z,76.31
2022-11-29T12:31:20.103Z,76.16
2022-11-29T12:34:10.879Z,76.40
2022-11-29T12:37:04.825Z,76.51
2022-11-29T12:40:01.802Z,75.96
2022-11-29T12:42:40.739Z,75.70
2022-11-29T12:45:40.576Z,75.48
2022-11-29T12:48:27.078Z,75.15
2022-11-29T12:51:23.680Z,74.92
2022-11-29T12:54:20.045Z,75.32
2022-11-29T12:57:28.603Z,75.52
2022-11-29T13:00:01.189Z,75.43
2022-11-29T13:03:02.677Z,74.96
2022-11-29T13:06:08.063Z,75.40
2022-11-29T13:09:24.262Z,75.32
2022-11-29T13:12:05.111Z,75.46
2022-11-29T13:14:45.491Z,75.45
2022-11-29T13:17:47.019Z,75.62
2022-11-29T13:20:25.820Z,75.52
2022-11-29T13:23:16.284Z,75.86
2022-11-29T13:25:47.667Z,75.99
2022-11-29T13:28:26.612Z,76.13
2022-11-29T13:31:03.442Z,75.87
2022-11-29T13:33:52.202Z,76.00
2022-11-29T13:36:24.951Z,75.92
2022-11-29T13:39:14.439Z,76.10
2022-11-29T13:41:54.725Z,76.19
2022-11-29T13:44:39.486Z,76.29
2022-11-29T13:47:12.776Z,76.71
2022-11-29T13:50:02.564Z,76.80
2022-11-29T13:52:43.378Z,76.76
2022-11-29T13:55:12.675Z,76.44
2022-11-29T13:58:16.871Z,76.94
2022-11-29T14:00:44.591Z,77.01
2022-11-29T14:03:20.970Z,77.00
2022-11-29T14:05:51.950Z,77.27
2022-11-29T14:11:42.470Z,77.65
2022-11-29T14:14:20.311Z,77.74
2022-11-29T14:16:52.465Z,77.86
2022-11-29T14:19:21.100Z,78.02
2022-11-29T14:22:03.132Z,78.17
2022-11-29T14:24:32.798Z,78.50
2022-11-29T14:27:14.428Z,78.72
2022-11-29T14:29:50.239Z,78.40
2022-11-29T14:32:42.807Z,78.33
2022-11-29T14:35:12.538Z,78.58
2022-11-29T14:38:19.391Z,78.68
2022-11-29T14:40:59.953Z,78.72
2022-11-29T14:43:33.513Z,78.92
2022-11-29T14:46:31.078Z,79.52
2022-11-29T14:49:03.798Z,79.42
2022-11-29T14:51:34.050Z,79.20
2022-11-29T14:54:13.204Z,79.13
2022-11-29T14:56:44.482Z,79.13
2022-11-29T14:59:47.149Z,79.10
2022-11-29T15:02:19.914Z,79.49
2022-11-29T15:04:50.997Z,79.70
2022-11-29T15:07:29.349Z,79.79
2022-11-29T15:10:04.431Z,80.04
2022-11-29T15:12:36.226Z,80.08
2022-11-29T15:15:21.774Z,80.22
2022-11-29T15:17:48.363Z,80.57
2022-11-29T15:20:28.036Z,80.66
2022-11-29T15:22:59.579Z,80.65
2022-11-29T15:25:31.233Z,80.28
2022-11-29T15:28:05.764Z,80.03
2022-11-29T15:30:42.325Z,80.19
2022-11-29T15:33:22.393Z,80.14
2022-11-29T15:35:53.266Z,80.31
2022-11-29T15:38:22.590Z,80.42
2022-11-29T15:40:55.271Z,80.65
2022-11-29T15:43:30.622Z,80.67
2022-11-29T15:45:58.957Z,80.62
2022-11-29T15:48:31.499Z,81.09
2022-11-29T15:51:23.258Z,80.96
2022-11-29T15:54:10.158Z,80.91
2022-11-29T15:56:48.945Z,80.74
2022-11-29T15:59:38.370Z,80.82
2022-11-29T16:02:32.515Z,81.02
2022-11-29T16:05:35.702Z,80.93
2022-11-29T16:08:17.809Z,81.07
2022-11-29T16:10:49.433Z,80.76
2022-11-29T16:13:25.425Z,80.81
2022-11-29T16:16:06.256Z,80.98
2022-11-29T16:18:33.857Z,81.17
2022-11-29T16:21:04.272Z,81.11
2022-11-29T16:23:41.209Z,81.28
2022-11-29T16:26:15.583Z,81.45
2022-11-29T16:28:46.554Z,81.57
2022-11-29T16:31:18.946Z,81.34
2022-11-29T16:33:47.582Z,81.24
2022-11-29T16:36:24.415Z,81.29
2022-11-29T16:39:06.392Z,81.28
2022-11-29T16:41:37.260Z,81.09
2022-11-29T16:44:07.316Z,81.31
2022-11-29T16:46:40.021Z,81.53
2022-11-29T16:49:34.837Z,81.69
2022-11-29T16:52:04.302Z,81.97
2022-11-29T16:54:35.465Z,82.16
2022-11-29T16:57:05.659Z,82.17
2022-11-29T16:59:32.809Z,82.42
2022-11-29T17:01:59.553Z,82.63
2022-11-29T17:04:26.596Z,82.58
2022-11-29T17:06:55.389Z,82.32
2022-11-29T17:09:31.288Z,82.23
2022-11-29T17:12:01.877Z,82.06
2022-11-29T17:14:29.607Z,82.09
2022-11-29T17:16:56.441Z,82.12
2022-11-29T17:19:24.144Z,82.08
2022-11-29T17:21:52.855Z,81.91
2022-11-29T17:24:22.671Z,81.86
2022-11-29T17:26:50.423Z,81.81
2022-11-29T17:29:18.294Z,81.77
2022-11-29T17:31:46.532Z,81.62
2022-11-29T17:34:13.271Z,81.65
2022-11-29T17:36:40.927Z,81.72
2022-11-29T17:39:08.314Z,81.87
2022-11-29T17:41:35.173Z,81.89
2022-11-29T17:44:02.202Z,82.09
2022-11-29T17:46:32.502Z,81.81
2022-11-29T17:49:02.083Z,81.56
2022-11-29T17:51:51.187Z,81.43
2022-11-29T17:54:16.305Z,81.37
2022-11-29T17:56:43.059Z,81.25
2022-11-29T17:59:09.682Z,81.11
2022-11-29T18:01:36.831Z,81.01
2022-11-29T18:04:05.819Z,80.99
2022-11-29T18:06:40.748Z,80.97
2022-11-29T18:09:10.660Z,80.94
2022-11-29T18:11:47.664Z,80.85
2022-11-29T18:14:23.844Z,80.96
2022-11-29T18:16:51.659Z,80.93
2022-11-29T18:19:21.605Z,80.95
2022-11-29T18:21:49.661Z,81.13
2022-11-29T18:24:16.724Z,81.17
2022-11-29T18:26:43.843Z,81.23
2022-11-29T18:29:10.792Z,81.20
2022-11-29T18:31:41.104Z,81.18
2022-11-29T18:34:10.899Z,81.20
2022-11-29T18:36:48.856Z,81.22
2022-11-29T18:39:19.032Z,81.16
2022-11-29T18:41:48.944Z,81.03
2022-11-29T18:44:18.889Z,80.92
2022-11-29T18:46:46.143Z,80.84
2022-11-29T18:49:16.044Z,80.92
2022-11-29T18:51:44.972Z,80.86
2022-11-29T18:54:12.914Z,80.80
2022-11-29T18:56:39.800Z,81.00
2022-11-29T18:59:16.763Z,81.02
2022-11-29T19:01:45.868Z,80.94
2022-11-29T19:04:16.814Z,80.72
2022-11-29T19:06:44.127Z,80.61
2022-11-29T19:09:23.782Z,80.34
2022-11-29T19:11:51.076Z,80.29
2022-11-29T19:14:18.677Z,80.29
2022-11-29T19:16:47.655Z,80.24
2022-11-29T19:19:14.337Z,80.13
2022-11-29T19:21:42.139Z,79.78
2022-11-29T19:24:14.900Z,79.53
2022-11-29T19:26:44.939Z,79.47
2022-11-29T19:29:13.690Z,79.37
2022-11-29T19:31:40.898Z,79.40
2022-11-29T19:34:07.673Z,79.26
2022-11-29T19:36:34.526Z,79.04
2022-11-29T19:39:02.811Z,78.94
2022-11-29T19:41:32.716Z,78.68
2022-11-29T19:44:04.395Z,78.78
2022-11-29T19:46:35.396Z,78.77
2022-11-29T19:49:05.030Z,78.92
2022-11-29T19:51:32.727Z,78.90
2022-11-29T19:54:02.739Z,78.97
2022-11-29T19:56:30.929Z,79.10
2022-11-29T19:58:59.918Z,78.97
2022-11-29T20:01:37.802Z,78.93
2022-11-29T20:04:07.394Z,78.78
2022-11-29T20:06:34.160Z,78.59
2022-11-29T20:09:00.842Z,78.41
2022-11-29T20:11:27.593Z,78.41
2022-11-29T20:13:59.647Z,78.39
2022-11-29T20:16:27.969Z,78.39
2022-11-29T20:18:55.694Z,78.39
2022-11-29T20:21:27.025Z,78.27
2022-11-29T20:24:05.793Z,78.06
2022-11-29T20:26:35.466Z,78.01
2022-11-29T20:29:02.772Z,78.02
2022-11-29T20:31:32.265Z,77.93
2022-11-29T20:33:59.235Z,77.88
2022-11-29T20:37:00.854Z,77.95
2022-11-29T20:39:45.648Z,77.78
2022-11-29T20:42:56.683Z,77.77
2022-11-29T20:45:24.795Z,77.68
2022-11-29T20:48:19.563Z,77.84
2022-11-29T20:50:56.889Z,78.07
2022-11-29T20:53:44.557Z,77.90
2022-11-29T20:56:12.174Z,78.11
2022-11-29T20:58:39.168Z,78.35
2022-11-29T21:01:07.339Z,78.63
2022-11-29T21:03:34.036Z,78.88
2022-11-29T21:06:04.101Z,78.94
2022-11-29T21:08:31.697Z,79.07
2022-11-29T21:11:08.114Z,79.40
2022-11-29T21:13:35.457Z,79.49
2022-11-29T21:16:03.391Z,79.54
2022-11-29T21:18:31.906Z,79.70
2022-11-29T21:22:02.238Z,79.60
2022-11-29T21:24:49.897Z,79.59
2022-11-29T21:27:29.189Z,79.43
2022-11-29T21:29:56.268Z,79.46
2022-11-29T21:32:25.457Z,79.22
2022-11-29T21:34:52.862Z,79.04
2022-11-29T21:37:23.018Z,79.04
2022-11-29T21:39:51.532Z,79.17
2022-11-29T21:42:18.643Z,79.09
2022-11-29T21:44:45.598Z,78.94
2022-11-29T21:47:12.753Z,78.98
2022-11-29T21:49:40.033Z,78.96
2022-11-29T21:52:06.996Z,78.92
2022-11-29T21:54:33.762Z,78.75
2022-11-29T21:57:01.813Z,78.84
2022-11-29T21:59:29.087Z,78.90
2022-11-29T22:01:55.831Z,78.90
2022-11-29T22:04:22.852Z,78.88
2022-11-29T22:06:49.558Z,78.99
2022-11-29T22:09:16.491Z,79.18
2022-11-29T22:11:43.251Z,79.32
2022-11-29T22:14:18.893Z,79.41
2022-11-29T22:16:53.550Z,79.36
2022-11-29T22:19:30.015Z,79.34
2022-11-29T22:22:02.936Z,79.11
2022-11-29T22:24:33.527Z,79.12
2022-11-29T22:27:00.421Z,79.18
2022-11-29T22:29:27.356Z,79.27
2022-11-29T22:31:56.259Z,79.38
2022-11-29T22:34:26.867Z,79.40
2022-11-29T22:36:53.899Z,79.31
2022-11-29T22:39:22.729Z,79.28
2022-11-29T22:41:53.935Z,79.32
2022-11-29T22:44:23.039Z,79.38
2022-11-29T22:46:50.070Z,79.40
2022-11-29T22:49:16.733Z,79.54
2022-11-29T22:51:43.992Z,79.57
2022-11-29T22:54:11.765Z,79.56
2022-11-29T22:56:41.386Z,79.26
2022-11-29T22:59:08.393Z,78.72
2022-11-29T23:01:38.780Z,78.56
2022-11-29T23:04:10.977Z,78.79
2022-11-29T23:06:43.959Z,78.90
2022-11-29T23:09:18.979Z,78.99
2022-11-29T23:11:46.450Z,79.07
2022-11-29T23:14:13.571Z,79.11
2022-11-29T23:16:40.973Z,79.10
2022-11-29T23:19:07.691Z,79.11
2022-11-29T23:21:38.313Z,79.07
2022-11-29T23:24:05.726Z,78.91
2022-11-29T23:26:40.112Z,78.96
2022-11-29T23:29:11.108Z,79.06
2022-11-29T23:31:38.719Z,79.38
2022-11-29T23:34:05.795Z,79.63
2022-11-29T23:36:33.062Z,79.57
2022-11-29T23:39:00.429Z,79.46
2022-11-29T23:41:27.104Z,79.44
2022-11-29T23:43:53.830Z,79.29
2022-11-29T23:46:24.125Z,79.26
2022-11-29T23:48:52.281Z,79.28
2022-11-29T23:51:20.019Z,79.18
2022-11-29T23:53:52.419Z,79.24
2022-11-29T23:56:20.228Z,79.31
2022-11-29T23:58:47.161Z,79.28
